sensor_id;sensor_type;location;lat;lon;timestamp;temperature;humidity
83472;SHT30;74051;47.120;18.370;2023-12-29T00:01:30;0.65;95.54
83472;SHT30;74051;47.120;18.370;2023-12-29T00:03:57;0.63;96.00
83472;SHT30;74051;47.120;18.370;2023-12-29T00:06:23;0.69;96.26
83472;SHT30;74051;47.120;18.370;2023-12-29T00:08:49;0.62;96.57
83472;SHT30;74051;47.120;18.370;2023-12-29T00:11:19;0.66;96.84
83472;SHT30;74051;47.120;18.370;2023-12-29T00:13:46;0.73;96.27
83472;SHT30;74051;47.120;18.370;2023-12-29T00:16:13;0.52;94.00
83472;SHT30;74051;47.120;18.370;2023-12-29T00:18:39;0.63;96.60
83472;SHT30;74051;47.120;18.370;2023-12-29T00:21:05;0.56;96.39
83472;SHT30;74051;47.120;18.370;2023-12-29T00:23:32;0.41;95.65
83472;SHT30;74051;47.120;18.370;2023-12-29T00:25:59;0.41;95.69
83472;SHT30;74051;47.120;18.370;2023-12-29T00:28:25;0.45;96.47
83472;SHT30;74051;47.120;18.370;2023-12-29T00:30:51;0.50;95.84
83472;SHT30;74051;47.120;18.370;2023-12-29T00:33:18;0.52;95.93
83472;SHT30;74051;47.120;18.370;2023-12-29T00:35:44;0.69;97.32
83472;SHT30;74051;47.120;18.370;2023-12-29T00:38:11;0.56;96.30
83472;SHT30;74051;47.120;18.370;2023-12-29T00:40:37;0.50;96.59
83472;SHT30;74051;47.120;18.370;2023-12-29T00:43:03;0.56;96.19
83472;SHT30;74051;47.120;18.370;2023-12-29T00:45:31;0.49;96.48
83472;SHT30;74051;47.120;18.370;2023-12-29T00:48:02;0.41;96.09
83472;SHT30;74051;47.120;18.370;2023-12-29T00:50:30;0.49;96.90
83472;SHT30;74051;47.120;18.370;2023-12-29T00:52:56;0.49;97.05
83472;SHT30;74051;47.120;18.370;2023-12-29T00:55:23;0.58;96.88
83472;SHT30;74051;47.120;18.370;2023-12-29T00:57:49;0.73;97.27
83472;SHT30;74051;47.120;18.370;2023-12-29T01:00:15;0.68;97.16
83472;SHT30;74051;47.120;18.370;2023-12-29T01:02:42;0.86;97.99
83472;SHT30;74051;47.120;18.370;2023-12-29T01:05:08;0.94;96.95
83472;SHT30;74051;47.120;18.370;2023-12-29T01:07:34;0.93;97.64
83472;SHT30;74051;47.120;18.370;2023-12-29T01:10:01;0.86;97.88
83472;SHT30;74051;47.120;18.370;2023-12-29T01:12:28;0.86;97.91
83472;SHT30;74051;47.120;18.370;2023-12-29T01:14:54;0.58;96.52
83472;SHT30;74051;47.120;18.370;2023-12-29T01:17:20;0.68;98.13
83472;SHT30;74051;47.120;18.370;2023-12-29T01:19:48;0.59;97.27
83472;SHT30;74051;47.120;18.370;2023-12-29T01:22:14;0.60;97.23
83472;SHT30;74051;47.120;18.370;2023-12-29T01:24:41;0.63;97.87
83472;SHT30;74051;47.120;18.370;2023-12-29T01:27:07;0.70;98.02
83472;SHT30;74051;47.120;18.370;2023-12-29T01:29:34;0.80;98.11
83472;SHT30;74051;47.120;18.370;2023-12-29T01:32:00;0.65;96.57
83472;SHT30;74051;47.120;18.370;2023-12-29T01:34:29;0.83;96.17
83472;SHT30;74051;47.120;18.370;2023-12-29T01:37:01;0.52;95.89
83472;SHT30;74051;47.120;18.370;2023-12-29T01:39:29;0.48;96.21
83472;SHT30;74051;47.120;18.370;2023-12-29T01:41:56;0.41;96.23
83472;SHT30;74051;47.120;18.370;2023-12-29T01:44:22;0.38;96.63
83472;SHT30;74051;47.120;18.370;2023-12-29T01:46:50;0.33;96.33
83472;SHT30;74051;47.120;18.370;2023-12-29T01:49:19;0.46;97.45
83472;SHT30;74051;47.120;18.370;2023-12-29T01:51:54;0.17;95.32
83472;SHT30;74051;47.120;18.370;2023-12-29T01:54:23;0.17;97.14
83472;SHT30;74051;47.120;18.370;2023-12-29T01:56:51;0.19;97.43
83472;SHT30;74051;47.120;18.370;2023-12-29T01:59:21;0.37;97.88
83472;SHT30;74051;47.120;18.370;2023-12-29T02:01:49;0.26;96.05
83472;SHT30;74051;47.120;18.370;2023-12-29T02:04:17;0.28;96.83
83472;SHT30;74051;47.120;18.370;2023-12-29T02:06:43;0.45;97.51
83472;SHT30;74051;47.120;18.370;2023-12-29T02:09:11;0.45;96.48
83472;SHT30;74051;47.120;18.370;2023-12-29T02:11:38;0.39;96.95
83472;SHT30;74051;47.120;18.370;2023-12-29T02:14:05;0.49;97.25
83472;SHT30;74051;47.120;18.370;2023-12-29T02:21:55;0.01;95.42
83472;SHT30;74051;47.120;18.370;2023-12-29T02:24:21;0.15;97.07
83472;SHT30;74051;47.120;18.370;2023-12-29T02:26:50;0.31;97.70
83472;SHT30;74051;47.120;18.370;2023-12-29T02:29:20;0.38;97.16
83472;SHT30;74051;47.120;18.370;2023-12-29T02:31:51;0.50;97.11
83472;SHT30;74051;47.120;18.370;2023-12-29T02:34:19;0.42;95.83
83472;SHT30;74051;47.120;18.370;2023-12-29T02:36:48;0.35;95.02
83472;SHT30;74051;47.120;18.370;2023-12-29T02:39:16;0.50;97.10
83472;SHT30;74051;47.120;18.370;2023-12-29T02:41:43;0.38;94.74
83472;SHT30;74051;47.120;18.370;2023-12-29T02:44:10;0.22;94.96
83472;SHT30;74051;47.120;18.370;2023-12-29T02:46:36;0.41;96.90
83472;SHT30;74051;47.120;18.370;2023-12-29T02:49:02;0.39;96.24
83472;SHT30;74051;47.120;18.370;2023-12-29T02:51:29;0.39;96.94
83472;SHT30;74051;47.120;18.370;2023-12-29T02:53:55;0.35;95.19
83472;SHT30;74051;47.120;18.370;2023-12-29T02:56:22;0.48;96.92
83472;SHT30;74051;47.120;18.370;2023-12-29T02:58:48;0.62;97.04
83472;SHT30;74051;47.120;18.370;2023-12-29T03:01:14;0.63;95.16
83472;SHT30;74051;47.120;18.370;2023-12-29T03:03:41;0.63;96.28
83472;SHT30;74051;47.120;18.370;2023-12-29T03:06:07;0.66;95.81
83472;SHT30;74051;47.120;18.370;2023-12-29T03:08:34;0.70;95.94
83472;SHT30;74051;47.120;18.370;2023-12-29T03:11:00;0.68;96.12
83472;SHT30;74051;47.120;18.370;2023-12-29T03:13:27;0.80;96.74
83472;SHT30;74051;47.120;18.370;2023-12-29T03:15:53;0.84;96.20
83472;SHT30;74051;47.120;18.370;2023-12-29T03:18:19;0.86;95.46
83472;SHT30;74051;47.120;18.370;2023-12-29T03:20:47;0.72;95.09
83472;SHT30;74051;47.120;18.370;2023-12-29T03:23:13;0.68;95.94
83472;SHT30;74051;47.120;18.370;2023-12-29T03:25:40;0.62;95.62
83472;SHT30;74051;47.120;18.370;2023-12-29T03:28:06;0.44;94.25
83472;SHT30;74051;47.120;18.370;2023-12-29T03:30:33;0.32;94.85
83472;SHT30;74051;47.120;18.370;2023-12-29T03:32:59;0.41;96.80
83472;SHT30;74051;47.120;18.370;2023-12-29T03:35:26;0.45;96.93
83472;SHT30;74051;47.120;18.370;2023-12-29T03:37:52;0.41;95.03
83472;SHT30;74051;47.120;18.370;2023-12-29T03:40:19;0.22;95.68
83472;SHT30;74051;47.120;18.370;2023-12-29T03:42:45;0.29;96.77
83472;SHT30;74051;47.120;18.370;2023-12-29T03:45:12;0.38;96.98
83472;SHT30;74051;47.120;18.370;2023-12-29T03:47:38;0.39;96.26
83472;SHT30;74051;47.120;18.370;2023-12-29T03:50:05;0.24;96.27
83472;SHT30;74051;47.120;18.370;2023-12-29T03:52:32;0.22;95.71
83472;SHT30;74051;47.120;18.370;2023-12-29T03:54:58;0.32;96.84
83472;SHT30;74051;47.120;18.370;2023-12-29T03:57:25;0.33;96.61
83472;SHT30;74051;47.120;18.370;2023-12-29T03:59:51;0.45;96.57
83472;SHT30;74051;47.120;18.370;2023-12-29T04:02:17;0.42;96.21
83472;SHT30;74051;47.120;18.370;2023-12-29T04:04:44;0.44;95.56
83472;SHT30;74051;47.120;18.370;2023-12-29T04:07:10;0.55;96.90
83472;SHT30;74051;47.120;18.370;2023-12-29T04:09:37;0.46;94.75
83472;SHT30;74051;47.120;18.370;2023-12-29T04:12:03;0.42;96.77
83472;SHT30;74051;47.120;18.370;2023-12-29T04:14:29;0.56;97.38
83472;SHT30;74051;47.120;18.370;2023-12-29T04:16:56;0.60;96.96
83472;SHT30;74051;47.120;18.370;2023-12-29T04:19:22;0.56;95.92
83472;SHT30;74051;47.120;18.370;2023-12-29T04:21:48;0.62;96.92
83472;SHT30;74051;47.120;18.370;2023-12-29T04:24:15;0.59;96.13
83472;SHT30;74051;47.120;18.370;2023-12-29T04:26:41;0.60;95.05
83472;SHT30;74051;47.120;18.370;2023-12-29T04:29:07;0.50;95.11
83472;SHT30;74051;47.120;18.370;2023-12-29T04:31:35;0.49;96.21
83472;SHT30;74051;47.120;18.370;2023-12-29T04:34:01;0.48;96.61
83472;SHT30;74051;47.120;18.370;2023-12-29T04:36:28;0.58;97.08
83472;SHT30;74051;47.120;18.370;2023-12-29T04:38:54;0.55;96.23
83472;SHT30;74051;47.120;18.370;2023-12-29T04:41:22;0.58;96.01
83472;SHT30;74051;47.120;18.370;2023-12-29T04:43:48;0.58;96.64
83472;SHT30;74051;47.120;18.370;2023-12-29T04:46:15;0.62;96.39
83472;SHT30;74051;47.120;18.370;2023-12-29T04:48:41;0.59;96.32
83472;SHT30;74051;47.120;18.370;2023-12-29T04:51:08;0.63;95.62
83472;SHT30;74051;47.120;18.370;2023-12-29T04:53:34;0.59;95.17
83472;SHT30;74051;47.120;18.370;2023-12-29T04:56:00;0.68;96.42
83472;SHT30;74051;47.120;18.370;2023-12-29T04:58:27;0.75;96.74
83472;SHT30;74051;47.120;18.370;2023-12-29T05:00:53;0.75;95.97
83472;SHT30;74051;47.120;18.370;2023-12-29T05:03:20;0.81;96.26
83472;SHT30;74051;47.120;18.370;2023-12-29T05:05:46;0.86;96.22
83472;SHT30;74051;47.120;18.370;2023-12-29T05:08:13;0.83;95.01
83472;SHT30;74051;47.120;18.370;2023-12-29T05:10:39;0.76;95.44
83472;SHT30;74051;47.120;18.370;2023-12-29T05:13:05;0.55;95.64
83472;SHT30;74051;47.120;18.370;2023-12-29T05:15:31;0.50;95.97
83472;SHT30;74051;47.120;18.370;2023-12-29T05:17:58;0.53;96.17
83472;SHT30;74051;47.120;18.370;2023-12-29T05:20:24;0.49;96.64
83472;SHT30;74051;47.120;18.370;2023-12-29T05:22:51;0.56;97.13
83472;SHT30;74051;47.120;18.370;2023-12-29T05:25:17;0.37;96.20
83472;SHT30;74051;47.120;18.370;2023-12-29T05:27:43;0.49;96.79
83472;SHT30;74051;47.120;18.370;2023-12-29T05:30:10;0.46;96.87
83472;SHT30;74051;47.120;18.370;2023-12-29T05:32:37;0.38;96.71
83472;SHT30;74051;47.120;18.370;2023-12-29T05:35:03;0.41;97.03
83472;SHT30;74051;47.120;18.370;2023-12-29T05:37:30;0.45;97.07
83472;SHT30;74051;47.120;18.370;2023-12-29T05:39:57;0.49;97.27
83472;SHT30;74051;47.120;18.370;2023-12-29T05:42:23;0.44;96.79
83472;SHT30;74051;47.120;18.370;2023-12-29T05:44:49;0.39;97.16
83472;SHT30;74051;47.120;18.370;2023-12-29T05:47:17;0.01;95.76
83472;SHT30;74051;47.120;18.370;2023-12-29T05:49:44;0.01;97.08
83472;SHT30;74051;47.120;18.370;2023-12-29T05:52:10;-0.03;97.08
83472;SHT30;74051;47.120;18.370;2023-12-29T05:54:36;-0.11;96.76
83472;SHT30;74051;47.120;18.370;2023-12-29T05:57:03;-0.23;96.83
83472;SHT30;74051;47.120;18.370;2023-12-29T05:59:29;-0.05;97.77
83472;SHT30;74051;47.120;18.370;2023-12-29T06:01:56;-0.02;97.08
83472;SHT30;74051;47.120;18.370;2023-12-29T06:04:22;0.01;97.90
83472;SHT30;74051;47.120;18.370;2023-12-29T06:06:48;0.04;97.25
83472;SHT30;74051;47.120;18.370;2023-12-29T06:09:15;-0.02;97.53
83472;SHT30;74051;47.120;18.370;2023-12-29T06:11:41;0.00;97.22
83472;SHT30;74051;47.120;18.370;2023-12-29T06:14:08;0.02;97.51
83472;SHT30;74051;47.120;18.370;2023-12-29T06:16:34;0.08;97.41
83472;SHT30;74051;47.120;18.370;2023-12-29T06:19:01;0.02;96.79
83472;SHT30;74051;47.120;18.370;2023-12-29T06:21:27;0.10;97.50
83472;SHT30;74051;47.120;18.370;2023-12-29T06:23:54;0.11;97.10
83472;SHT30;74051;47.120;18.370;2023-12-29T06:26:20;0.12;96.60
83472;SHT30;74051;47.120;18.370;2023-12-29T06:28:47;0.22;97.49
83472;SHT30;74051;47.120;18.370;2023-12-29T06:31:13;0.35;96.83
83472;SHT30;74051;47.120;18.370;2023-12-29T06:33:43;0.31;96.25
83472;SHT30;74051;47.120;18.370;2023-12-29T06:36:11;0.41;96.75
83472;SHT30;74051;47.120;18.370;2023-12-29T06:38:38;0.35;95.28
83472;SHT30;74051;47.120;18.370;2023-12-29T06:41:04;0.48;97.18
83472;SHT30;74051;47.120;18.370;2023-12-29T06:43:31;0.48;95.74
83472;SHT30;74051;47.120;18.370;2023-12-29T06:45:57;0.65;97.34
83472;SHT30;74051;47.120;18.370;2023-12-29T06:48:23;0.63;96.38
83472;SHT30;74051;47.120;18.370;2023-12-29T06:50:50;0.70;96.26
83472;SHT30;74051;47.120;18.370;2023-12-29T06:53:16;0.75;96.79
83472;SHT30;74051;47.120;18.370;2023-12-29T06:55:43;0.83;96.76
83472;SHT30;74051;47.120;18.370;2023-12-29T06:58:09;0.81;96.57
83472;SHT30;74051;47.120;18.370;2023-12-29T07:00:36;0.83;97.05
83472;SHT30;74051;47.120;18.370;2023-12-29T07:03:03;0.83;97.46
83472;SHT30;74051;47.120;18.370;2023-12-29T07:05:29;0.96;96.88
83472;SHT30;74051;47.120;18.370;2023-12-29T07:07:56;1.03;96.24
83472;SHT30;74051;47.120;18.370;2023-12-29T07:10:22;0.94;95.55
83472;SHT30;74051;47.120;18.370;2023-12-29T07:12:49;1.13;96.67
83472;SHT30;74051;47.120;18.370;2023-12-29T07:15:16;1.16;96.19
83472;SHT30;74051;47.120;18.370;2023-12-29T07:17:43;1.38;97.50
83472;SHT30;74051;47.120;18.370;2023-12-29T07:24:54;1.42;95.37
83472;SHT30;74051;47.120;18.370;2023-12-29T07:27:21;1.32;93.21
83472;SHT30;74051;47.120;18.370;2023-12-29T07:29:47;1.28;94.41
83472;SHT30;74051;47.120;18.370;2023-12-29T07:32:14;1.16;93.05
83472;SHT30;74051;47.120;18.370;2023-12-29T07:34:40;1.21;96.77
83472;SHT30;74051;47.120;18.370;2023-12-29T07:37:06;1.24;96.70
83472;SHT30;74051;47.120;18.370;2023-12-29T07:39:36;1.38;95.88
83472;SHT30;74051;47.120;18.370;2023-12-29T07:42:02;1.37;95.15
83472;SHT30;74051;47.120;18.370;2023-12-29T07:44:31;1.39;94.82
83472;SHT30;74051;47.120;18.370;2023-12-29T07:46:58;1.41;94.12
83472;SHT30;74051;47.120;18.370;2023-12-29T07:49:24;1.60;94.01
83472;SHT30;74051;47.120;18.370;2023-12-29T07:51:51;1.99;95.96
83472;SHT30;74051;47.120;18.370;2023-12-29T07:54:17;1.99;91.48
83472;SHT30;74051;47.120;18.370;2023-12-29T07:56:44;2.20;94.17
83472;SHT30;74051;47.120;18.370;2023-12-29T07:59:10;2.33;94.14
83472;SHT30;74051;47.120;18.370;2023-12-29T08:01:37;2.35;92.11
83472;SHT30;74051;47.120;18.370;2023-12-29T08:04:04;2.07;94.58
83472;SHT30;74051;47.120;18.370;2023-12-29T08:06:30;1.95;89.15
83472;SHT30;74051;47.120;18.370;2023-12-29T08:08:57;1.39;90.82
83472;SHT30;74051;47.120;18.370;2023-12-29T08:11:23;2.00;94.64
83472;SHT30;74051;47.120;18.370;2023-12-29T08:13:50;2.28;89.73
83472;SHT30;74051;47.120;18.370;2023-12-29T08:16:16;2.31;90.11
83472;SHT30;74051;47.120;18.370;2023-12-29T08:18:48;2.28;89.42
83472;SHT30;74051;47.120;18.370;2023-12-29T08:21:19;2.20;92.99
83472;SHT30;74051;47.120;18.370;2023-12-29T08:23:48;2.72;91.76
83472;SHT30;74051;47.120;18.370;2023-12-29T08:26:15;2.55;88.17
83472;SHT30;74051;47.120;18.370;2023-12-29T08:28:42;2.56;88.25
83472;SHT30;74051;47.120;18.370;2023-12-29T08:31:08;2.61;89.36
83472;SHT30;74051;47.120;18.370;2023-12-29T08:33:34;2.74;88.47
83472;SHT30;74051;47.120;18.370;2023-12-29T08:36:02;3.23;88.29
83472;SHT30;74051;47.120;18.370;2023-12-29T08:38:30;2.72;85.31
83472;SHT30;74051;47.120;18.370;2023-12-29T08:40:58;3.03;89.14
83472;SHT30;74051;47.120;18.370;2023-12-29T08:43:24;3.70;85.04
83472;SHT30;74051;47.120;18.370;2023-12-29T08:45:50;3.89;86.54
83472;SHT30;74051;47.120;18.370;2023-12-29T08:48:17;3.55;83.11
83472;SHT30;74051;47.120;18.370;2023-12-29T08:50:43;4.09;83.60
83472;SHT30;74051;47.120;18.370;2023-12-29T08:53:10;4.09;84.44
83472;SHT30;74051;47.120;18.370;2023-12-29T08:55:36;3.98;83.55
83472;SHT30;74051;47.120;18.370;2023-12-29T08:58:03;4.29;83.01
83472;SHT30;74051;47.120;18.370;2023-12-29T09:00:29;4.12;81.05
83472;SHT30;74051;47.120;18.370;2023-12-29T09:02:56;3.93;82.07
83472;SHT30;74051;47.120;18.370;2023-12-29T09:05:23;4.03;87.01
83472;SHT30;74051;47.120;18.370;2023-12-29T09:07:49;3.82;83.49
83472;SHT30;74051;47.120;18.370;2023-12-29T09:10:16;3.79;85.12
83472;SHT30;74051;47.120;18.370;2023-12-29T09:12:42;4.06;86.27
83472;SHT30;74051;47.120;18.370;2023-12-29T09:15:08;4.70;83.66
83472;SHT30;74051;47.120;18.370;2023-12-29T09:17:35;5.05;81.41
83472;SHT30;74051;47.120;18.370;2023-12-29T09:20:03;5.18;79.44
83472;SHT30;74051;47.120;18.370;2023-12-29T09:22:29;4.72;78.66
83472;SHT30;74051;47.120;18.370;2023-12-29T09:24:55;4.78;80.70
83472;SHT30;74051;47.120;18.370;2023-12-29T09:27:22;4.71;82.10
83472;SHT30;74051;47.120;18.370;2023-12-29T09:29:48;5.25;80.64
83472;SHT30;74051;47.120;18.370;2023-12-29T09:32:14;5.39;80.31
83472;SHT30;74051;47.120;18.370;2023-12-29T09:34:40;5.47;80.64
83472;SHT30;74051;47.120;18.370;2023-12-29T09:37:08;5.01;80.81
83472;SHT30;74051;47.120;18.370;2023-12-29T09:39:34;5.36;80.50
83472;SHT30;74051;47.120;18.370;2023-12-29T09:42:02;5.15;81.35
83472;SHT30;74051;47.120;18.370;2023-12-29T09:44:31;5.46;82.72
83472;SHT30;74051;47.120;18.370;2023-12-29T09:47:01;5.49;79.93
83472;SHT30;74051;47.120;18.370;2023-12-29T09:49:37;5.67;81.32
83472;SHT30;74051;47.120;18.370;2023-12-29T09:52:09;5.51;79.87
83472;SHT30;74051;47.120;18.370;2023-12-29T09:54:37;5.54;81.59
83472;SHT30;74051;47.120;18.370;2023-12-29T09:57:04;5.77;80.39
83472;SHT30;74051;47.120;18.370;2023-12-29T09:59:34;5.09;79.21
83472;SHT30;74051;47.120;18.370;2023-12-29T10:02:13;5.83;81.75
83472;SHT30;74051;47.120;18.370;2023-12-29T10:04:40;5.78;79.93
83472;SHT30;74051;47.120;18.370;2023-12-29T10:07:07;5.88;79.66
83472;SHT30;74051;47.120;18.370;2023-12-29T10:09:37;5.71;80.76
83472;SHT30;74051;47.120;18.370;2023-12-29T10:12:05;6.08;78.69
83472;SHT30;74051;47.120;18.370;2023-12-29T10:17:19;6.77;77.69
83472;SHT30;74051;47.120;18.370;2023-12-29T10:19:58;6.49;77.59
83472;SHT30;74051;47.120;18.370;2023-12-29T10:25:08;6.50;77.94
83472;SHT30;74051;47.120;18.370;2023-12-29T10:27:36;5.98;78.81
83472;SHT30;74051;47.120;18.370;2023-12-29T10:30:02;6.01;79.12
83472;SHT30;74051;47.120;18.370;2023-12-29T10:32:30;6.84;76.68
83472;SHT30;74051;47.120;18.370;2023-12-29T10:35:08;7.04;78.06
83472;SHT30;74051;47.120;18.370;2023-12-29T10:37:35;7.11;75.89
83472;SHT30;74051;47.120;18.370;2023-12-29T10:40:02;7.08;76.08
83472;SHT30;74051;47.120;18.370;2023-12-29T10:42:29;7.17;75.30
83472;SHT30;74051;47.120;18.370;2023-12-29T10:45:09;6.94;75.45
83472;SHT30;74051;47.120;18.370;2023-12-29T10:47:36;7.12;75.89
83472;SHT30;74051;47.120;18.370;2023-12-29T10:50:03;7.28;75.73
83472;SHT30;74051;47.120;18.370;2023-12-29T10:52:32;7.49;74.58
83472;SHT30;74051;47.120;18.370;2023-12-29T10:55:06;7.46;75.09
83472;SHT30;74051;47.120;18.370;2023-12-29T10:57:34;7.55;77.28
83472;SHT30;74051;47.120;18.370;2023-12-29T11:00:01;7.69;75.57
83472;SHT30;74051;47.120;18.370;2023-12-29T11:02:29;7.85;75.10
83472;SHT30;74051;47.120;18.370;2023-12-29T11:05:05;8.25;74.76
83472;SHT30;74051;47.120;18.370;2023-12-29T11:10:04;8.56;72.32
83472;SHT30;74051;47.120;18.370;2023-12-29T11:12:36;8.82;73.21
83472;SHT30;74051;47.120;18.370;2023-12-29T11:15:04;8.73;73.03
83472;SHT30;74051;47.120;18.370;2023-12-29T11:17:33;8.03;75.74
83472;SHT30;74051;47.120;18.370;2023-12-29T11:20:02;8.03;75.80
83472;SHT30;74051;47.120;18.370;2023-12-29T11:22:30;8.17;75.46
83472;SHT30;74051;47.120;18.370;2023-12-29T11:24:58;8.35;76.77
83472;SHT30;74051;47.120;18.370;2023-12-29T11:27:28;8.30;75.39
83472;SHT30;74051;47.120;18.370;2023-12-29T11:29:59;8.30;75.32
83472;SHT30;74051;47.120;18.370;2023-12-29T11:32:47;8.10;76.44
83472;SHT30;74051;47.120;18.370;2023-12-29T11:35:24;8.20;76.43
83472;SHT30;74051;47.120;18.370;2023-12-29T11:38:12;7.97;78.06
83472;SHT30;74051;47.120;18.370;2023-12-29T11:40:56;7.69;79.04
83472;SHT30;74051;47.120;18.370;2023-12-29T11:43:26;7.67;79.06
83472;SHT30;74051;47.120;18.370;2023-12-29T11:45:52;8.42;78.56
83472;SHT30;74051;47.120;18.370;2023-12-29T11:48:53;8.55;78.09
83472;SHT30;74051;47.120;18.370;2023-12-29T11:51:31;8.52;77.46
83472;SHT30;74051;47.120;18.370;2023-12-29T11:54:00;8.51;79.07
83472;SHT30;74051;47.120;18.370;2023-12-29T11:56:39;8.45;78.37
83472;SHT30;74051;47.120;18.370;2023-12-29T11:59:17;8.86;77.72
83472;SHT30;74051;47.120;18.370;2023-12-29T12:01:51;9.06;77.07
83472;SHT30;74051;47.120;18.370;2023-12-29T12:04:34;9.34;75.56
83472;SHT30;74051;47.120;18.370;2023-12-29T12:07:12;9.40;75.41
83472;SHT30;74051;47.120;18.370;2023-12-29T12:09:39;9.41;76.09
83472;SHT30;74051;47.120;18.370;2023-12-29T12:12:05;9.44;77.00
83472;SHT30;74051;47.120;18.370;2023-12-29T12:14:46;9.55;77.18
83472;SHT30;74051;47.120;18.370;2023-12-29T12:17:49;9.86;76.96
83472;SHT30;74051;47.120;18.370;2023-12-29T12:20:16;10.08;75.76
83472;SHT30;74051;47.120;18.370;2023-12-29T12:22:43;10.34;75.27
83472;SHT30;74051;47.120;18.370;2023-12-29T12:25:11;10.80;74.76
83472;SHT30;74051;47.120;18.370;2023-12-29T12:27:38;11.05;73.43
83472;SHT30;74051;47.120;18.370;2023-12-29T12:30:05;11.29;73.17
83472;SHT30;74051;47.120;18.370;2023-12-29T12:32:32;11.42;71.29
83472;SHT30;74051;47.120;18.370;2023-12-29T12:34:58;11.47;70.89
83472;SHT30;74051;47.120;18.370;2023-12-29T12:37:28;11.57;72.45
83472;SHT30;74051;47.120;18.370;2023-12-29T12:39:55;11.70;70.86
83472;SHT30;74051;47.120;18.370;2023-12-29T12:42:22;11.60;71.85
83472;SHT30;74051;47.120;18.370;2023-12-29T12:44:56;11.35;72.40
83472;SHT30;74051;47.120;18.370;2023-12-29T12:47:36;11.07;73.08
83472;SHT30;74051;47.120;18.370;2023-12-29T12:50:05;10.98;73.09
83472;SHT30;74051;47.120;18.370;2023-12-29T12:52:35;10.99;74.24
83472;SHT30;74051;47.120;18.370;2023-12-29T12:55:03;10.91;74.76
83472;SHT30;74051;47.120;18.370;2023-12-29T12:57:30;10.74;74.63
83472;SHT30;74051;47.120;18.370;2023-12-29T12:59:59;10.59;75.18
83472;SHT30;74051;47.120;18.370;2023-12-29T13:02:28;10.47;76.16
83472;SHT30;74051;47.120;18.370;2023-12-29T13:04:54;10.40;76.71
83472;SHT30;74051;47.120;18.370;2023-12-29T13:07:21;10.40;76.88
83472;SHT30;74051;47.120;18.370;2023-12-29T13:09:48;9.92;77.60
83472;SHT30;74051;47.120;18.370;2023-12-29T13:12:16;9.79;78.22
83472;SHT30;74051;47.120;18.370;2023-12-29T13:14:43;9.96;79.80
83472;SHT30;74051;47.120;18.370;2023-12-29T13:17:14;9.98;78.89
83472;SHT30;74051;47.120;18.370;2023-12-29T13:19:41;10.10;79.73
83472;SHT30;74051;47.120;18.370;2023-12-29T13:22:10;10.28;77.95
83472;SHT30;74051;47.120;18.370;2023-12-29T13:24:45;10.24;77.08
83472;SHT30;74051;47.120;18.370;2023-12-29T13:27:12;10.26;77.04
83472;SHT30;74051;47.120;18.370;2023-12-29T13:29:39;10.23;78.15
83472;SHT30;74051;47.120;18.370;2023-12-29T13:32:24;10.08;78.71
83472;SHT30;74051;47.120;18.370;2023-12-29T13:35:16;9.99;78.09
83472;SHT30;74051;47.120;18.370;2023-12-29T13:38:10;9.92;80.13
83472;SHT30;74051;47.120;18.370;2023-12-29T13:43:11;9.74;80.64
83472;SHT30;74051;47.120;18.370;2023-12-29T13:45:40;9.75;79.21
83472;SHT30;74051;47.120;18.370;2023-12-29T13:48:07;10.03;77.11
83472;SHT30;74051;47.120;18.370;2023-12-29T13:50:35;10.20;76.52
83472;SHT30;74051;47.120;18.370;2023-12-29T13:53:02;10.06;76.24
83472;SHT30;74051;47.120;18.370;2023-12-29T13:55:28;10.08;76.69
83472;SHT30;74051;47.120;18.370;2023-12-29T13:57:55;10.12;74.49
83472;SHT30;74051;47.120;18.370;2023-12-29T14:00:23;10.05;74.22
83472;SHT30;74051;47.120;18.370;2023-12-29T14:10:30;9.89;74.08
83472;SHT30;74051;47.120;18.370;2023-12-29T14:13:14;9.57;75.33
83472;SHT30;74051;47.120;18.370;2023-12-29T14:15:45;9.35;76.21
83472;SHT30;74051;47.120;18.370;2023-12-29T14:20:59;9.20;76.96
83472;SHT30;74051;47.120;18.370;2023-12-29T14:23:25;9.27;76.67
83472;SHT30;74051;47.120;18.370;2023-12-29T14:25:52;9.28;76.55
83472;SHT30;74051;47.120;18.370;2023-12-29T14:28:19;9.20;77.41
83472;SHT30;74051;47.120;18.370;2023-12-29T14:30:48;9.24;77.09
83472;SHT30;74051;47.120;18.370;2023-12-29T14:33:14;9.28;76.67
83472;SHT30;74051;47.120;18.370;2023-12-29T14:35:41;9.24;79.22
83472;SHT30;74051;47.120;18.370;2023-12-29T14:38:07;8.96;79.59
83472;SHT30;74051;47.120;18.370;2023-12-29T14:40:34;8.90;78.70
83472;SHT30;74051;47.120;18.370;2023-12-29T14:43:01;8.76;80.05
83472;SHT30;74051;47.120;18.370;2023-12-29T14:45:28;8.66;80.60
83472;SHT30;74051;47.120;18.370;2023-12-29T14:47:58;8.59;80.85
83472;SHT30;74051;47.120;18.370;2023-12-29T14:50:24;8.48;81.04
83472;SHT30;74051;47.120;18.370;2023-12-29T14:52:51;8.37;80.32
83472;SHT30;74051;47.120;18.370;2023-12-29T14:55:17;8.24;80.51
83472;SHT30;74051;47.120;18.370;2023-12-29T14:57:46;7.98;82.39
83472;SHT30;74051;47.120;18.370;2023-12-29T15:00:13;7.86;83.28
83472;SHT30;74051;47.120;18.370;2023-12-29T15:02:40;7.66;83.88
83472;SHT30;74051;47.120;18.370;2023-12-29T15:05:07;7.48;85.24
83472;SHT30;74051;47.120;18.370;2023-12-29T15:07:35;7.25;85.93
83472;SHT30;74051;47.120;18.370;2023-12-29T15:10:01;7.17;87.28
83472;SHT30;74051;47.120;18.370;2023-12-29T15:12:28;7.14;86.07
83472;SHT30;74051;47.120;18.370;2023-12-29T15:14:54;7.09;86.57
83472;SHT30;74051;47.120;18.370;2023-12-29T15:17:21;6.94;86.92
83472;SHT30;74051;47.120;18.370;2023-12-29T15:19:47;6.75;87.73
83472;SHT30;74051;47.120;18.370;2023-12-29T15:22:13;6.75;87.91
83472;SHT30;74051;47.120;18.370;2023-12-29T15:24:40;6.70;86.48
83472;SHT30;74051;47.120;18.370;2023-12-29T15:27:06;6.54;87.50
83472;SHT30;74051;47.120;18.370;2023-12-29T15:29:32;6.33;88.70
83472;SHT30;74051;47.120;18.370;2023-12-29T15:31:59;6.21;88.23
83472;SHT30;74051;47.120;18.370;2023-12-29T15:34:26;6.18;88.77
83472;SHT30;74051;47.120;18.370;2023-12-29T15:36:52;6.08;88.75
83472;SHT30;74051;47.120;18.370;2023-12-29T15:39:18;5.90;89.98
83472;SHT30;74051;47.120;18.370;2023-12-29T15:41:45;5.77;90.44
83472;SHT30;74051;47.120;18.370;2023-12-29T15:44:11;5.64;90.86
83472;SHT30;74051;47.120;18.370;2023-12-29T15:46:37;5.63;91.14
83472;SHT30;74051;47.120;18.370;2023-12-29T15:49:03;5.64;91.96
83472;SHT30;74051;47.120;18.370;2023-12-29T15:51:30;5.57;91.82
83472;SHT30;74051;47.120;18.370;2023-12-29T15:53:56;5.57;90.74
83472;SHT30;74051;47.120;18.370;2023-12-29T15:56:23;5.53;91.15
83472;SHT30;74051;47.120;18.370;2023-12-29T15:58:49;5.47;90.13
83472;SHT30;74051;47.120;18.370;2023-12-29T16:01:23;5.35;92.02
83472;SHT30;74051;47.120;18.370;2023-12-29T16:03:52;5.33;93.02
83472;SHT30;74051;47.120;18.370;2023-12-29T16:06:23;5.44;92.44